sensor_id;sensor_type;location;lat;lon;timestamp;P1;durP1;ratioP1;P2;durP2;ratioP2
3259;SDS011;22469;48.150;14.004;2022-10-03T07:58:28;6.27;;;5.73;;
3259;SDS011;22469;48.150;14.004;2022-10-03T08:37:38;8.80;;;5.10;;
3259;SDS011;22469;48.150;14.004;2022-10-03T08:57:57;5.13;;;4.73;;
3259;SDS011;22469;48.150;14.004;2022-10-03T09:00:47;12.87;;;5.67;;
3259;SDS011;22469;48.150;14.004;2022-10-03T09:45:34;5.37;;;4.97;;
3259;SDS011;22469;48.150;14.004;2022-10-03T09:51:39;5.70;;;4.83;;
3259;SDS011;22469;48.150;14.004;2022-10-03T09:57:39;13.40;;;4.93;;
3259;SDS011;22469;48.150;14.004;2022-10-03T10:09:06;4.00;;;3.70;;
3259;SDS011;22469;48.150;14.004;2022-10-03T10:32:39;6.07;;;3.70;;
3259;SDS011;22469;48.150;14.004;2022-10-03T11:00:12;10.33;;;2.93;;
3259;SDS011;22469;48.150;14.004;2022-10-03T11:03:32;3.00;;;2.77;;
3259;SDS011;22469;48.150;14.004;2022-10-03T11:52:06;4.40;;;2.70;;
3259;SDS011;22469;48.150;14.004;2022-10-03T11:55:01;6.43;;;2.47;;
3259;SDS011;22469;48.150;14.004;2022-10-03T11:58:07;5.10;;;2.60;;
3259;SDS011;22469;48.150;14.004;2022-10-03T12:01:17;5.07;;;2.27;;
3259;SDS011;22469;48.150;14.004;2022-10-03T12:04:12;7.10;;;3.40;;
3259;SDS011;22469;48.150;14.004;2022-10-03T12:15:13;4.20;;;2.30;;
3259;SDS011;22469;48.150;14.004;2022-10-03T12:18:09;4.83;;;2.73;;
3259;SDS011;22469;48.150;14.004;2022-10-03T12:20:52;3.93;;;2.40;;
3259;SDS011;22469;48.150;14.004;2022-10-03T12:29:39;3.13;;;1.93;;
3259;SDS011;22469;48.150;14.004;2022-10-03T12:35:44;7.70;;;2.10;;
3259;SDS011;22469;48.150;14.004;2022-10-03T12:49:45;2.87;;;2.67;;
3259;SDS011;22469;48.150;14.004;2022-10-03T12:52:25;3.80;;;2.60;;
3259;SDS011;22469;48.150;14.004;2022-10-03T12:55:09;5.07;;;2.80;;
3259;SDS011;22469;48.150;14.004;2022-10-03T12:57:59;3.00;;;2.53;;
3259;SDS011;22469;48.150;14.004;2022-10-03T13:16:32;5.03;;;3.40;;
3259;SDS011;22469;48.150;14.004;2022-10-03T13:21:51;6.43;;;3.20;;
3259;SDS011;22469;48.150;14.004;2022-10-03T13:24:38;2.97;;;2.43;;
3259;SDS011;22469;48.150;14.004;2022-10-03T13:29:52;3.30;;;3.00;;
3259;SDS011;22469;48.150;14.004;2022-10-03T13:32:55;4.80;;;2.67;;
3259;SDS011;22469;48.150;14.004;2022-10-03T13:44:19;3.53;;;2.70;;
3259;SDS011;22469;48.150;14.004;2022-10-03T13:46:58;5.87;;;2.57;;
3259;SDS011;22469;48.150;14.004;2022-10-03T13:49:29;3.57;;;2.50;;
3259;SDS011;22469;48.150;14.004;2022-10-03T13:52:12;3.43;;;2.10;;
3259;SDS011;22469;48.150;14.004;2022-10-03T13:57:31;2.50;;;2.30;;
3259;SDS011;22469;48.150;14.004;2022-10-03T14:00:07;4.30;;;2.23;;
3259;SDS011;22469;48.150;14.004;2022-10-03T14:02:52;2.93;;;2.33;;
3259;SDS011;22469;48.150;14.004;2022-10-03T14:11:41;3.53;;;2.60;;
3259;SDS011;22469;48.150;14.004;2022-10-03T14:14:42;11.33;;;3.70;;
3259;SDS011;22469;48.150;14.004;2022-10-03T14:17:30;6.50;;;2.63;;
3259;SDS011;22469;48.150;14.004;2022-10-03T14:20:18;3.57;;;1.90;;
3259;SDS011;22469;48.150;14.004;2022-10-03T14:26:41;1.27;;;1.27;;
3259;SDS011;22469;48.150;14.004;2022-10-03T14:43:03;4.50;;;1.73;;
3259;SDS011;22469;48.150;14.004;2022-10-03T14:45:51;5.70;;;2.00;;
3259;SDS011;22469;48.150;14.004;2022-10-03T14:48:24;2.90;;;2.10;;
3259;SDS011;22469;48.150;14.004;2022-10-03T14:51:12;6.87;;;2.87;;
3259;SDS011;22469;48.150;14.004;2022-10-03T14:54:04;6.93;;;2.37;;
3259;SDS011;22469;48.150;14.004;2022-10-03T14:56:47;1.77;;;1.67;;
3259;SDS011;22469;48.150;14.004;2022-10-03T14:59:21;2.00;;;1.90;;
3259;SDS011;22469;48.150;14.004;2022-10-03T15:01:52;4.27;;;2.13;;
3259;SDS011;22469;48.150;14.004;2022-10-03T15:04:33;2.40;;;1.97;;
3259;SDS011;22469;48.150;14.004;2022-10-03T15:07:04;3.53;;;1.73;;
3259;SDS011;22469;48.150;14.004;2022-10-03T15:09:41;4.13;;;2.13;;
3259;SDS011;22469;48.150;14.004;2022-10-03T15:15:00;3.77;;;2.10;;
3259;SDS011;22469;48.150;14.004;2022-10-03T15:17:42;3.33;;;1.40;;
3259;SDS011;22469;48.150;14.004;2022-10-03T15:20:18;6.30;;;1.70;;
3259;SDS011;22469;48.150;14.004;2022-10-03T15:22:52;2.30;;;1.40;;
3259;SDS011;22469;48.150;14.004;2022-10-03T15:28:08;6.70;;;4.57;;
3259;SDS011;22469;48.150;14.004;2022-10-03T15:30:42;9.73;;;7.80;;
3259;SDS011;22469;48.150;14.004;2022-10-03T15:36:04;2.30;;;1.80;;
3259;SDS011;22469;48.150;14.004;2022-10-03T15:39:05;6.77;;;2.70;;
3259;SDS011;22469;48.150;14.004;2022-10-03T15:44:25;4.23;;;3.93;;
3259;SDS011;22469;48.150;14.004;2022-10-03T15:47:06;5.60;;;2.53;;
3259;SDS011;22469;48.150;14.004;2022-10-03T15:53:14;1.73;;;1.63;;
3259;SDS011;22469;48.150;14.004;2022-10-03T15:56:13;2.27;;;1.90;;
3259;SDS011;22469;48.150;14.004;2022-10-03T15:58:50;1.87;;;1.60;;
3259;SDS011;22469;48.150;14.004;2022-10-03T16:01:31;2.10;;;1.90;;
3259;SDS011;22469;48.150;14.004;2022-10-03T16:04:49;3.03;;;2.83;;
3259;SDS011;22469;48.150;14.004;2022-10-03T16:07:53;2.30;;;2.10;;
3259;SDS011;22469;48.150;14.004;2022-10-03T16:11:28;2.00;;;1.90;;
3259;SDS011;22469;48.150;14.004;2022-10-03T16:18:40;2.60;;;1.83;;
3259;SDS011;22469;48.150;14.004;2022-10-03T16:21:31;1.70;;;1.60;;
3259;SDS011;22469;48.150;14.004;2022-10-03T16:24:06;4.60;;;2.00;;
3259;SDS011;22469;48.150;14.004;2022-10-03T16:26:52;2.33;;;2.00;;
3259;SDS011;22469;48.150;14.004;2022-10-03T16:29:26;3.05;;;2.30;;
3259;SDS011;22469;48.150;14.004;2022-10-03T16:35:13;2.20;;;2.00;;
3259;SDS011;22469;48.150;14.004;2022-10-03T16:38:07;2.47;;;2.27;;
3259;SDS011;22469;48.150;14.004;2022-10-03T16:40:49;2.90;;;2.70;;
3259;SDS011;22469;48.150;14.004;2022-10-03T16:43:20;3.93;;;2.40;;
3259;SDS011;22469;48.150;14.004;2022-10-03T16:45:50;2.77;;;1.87;;
3259;SDS011;22469;48.150;14.004;2022-10-03T16:48:20;5.70;;;3.60;;
3259;SDS011;22469;48.150;14.004;2022-10-03T16:53:59;2.63;;;2.40;;
3259;SDS011;22469;48.150;14.004;2022-10-03T16:56:30;3.90;;;2.77;;
3259;SDS011;22469;48.150;14.004;2022-10-03T16:59:04;5.57;;;3.57;;
3259;SDS011;22469;48.150;14.004;2022-10-03T17:01:41;3.80;;;3.50;;
3259;SDS011;22469;48.150;14.004;2022-10-03T17:06:50;8.53;;;4.87;;
3259;SDS011;22469;48.150;14.004;2022-10-03T17:12:58;5.80;;;4.80;;
3259;SDS011;22469;48.150;14.004;2022-10-03T17:15:17;5.97;;;4.63;;
3259;SDS011;22469;48.150;14.004;2022-10-03T17:18:02;5.47;;;4.63;;
3259;SDS011;22469;48.150;14.004;2022-10-03T17:21:02;6.87;;;3.80;;
3259;SDS011;22469;48.150;14.004;2022-10-03T17:23:37;3.27;;;2.97;;
3259;SDS011;22469;48.150;14.004;2022-10-03T17:34:53;6.60;;;3.83;;
3259;SDS011;22469;48.150;14.004;2022-10-03T17:43:41;5.00;;;3.10;;
3259;SDS011;22469;48.150;14.004;2022-10-03T17:51:39;7.60;;;5.90;;
3259;SDS011;22469;48.150;14.004;2022-10-03T17:54:14;9.80;;;6.53;;
3259;SDS011;22469;48.150;14.004;2022-10-03T17:56:48;7.00;;;6.30;;
3259;SDS011;22469;48.150;14.004;2022-10-03T17:59:32;7.40;;;6.70;;
3259;SDS011;22469;48.150;14.004;2022-10-03T18:05:50;6.37;;;5.87;;
3259;SDS011;22469;48.150;14.004;2022-10-03T18:08:22;7.93;;;4.63;;
3259;SDS011;22469;48.150;14.004;2022-10-03T18:10:56;7.53;;;5.50;;
3259;SDS011;22469;48.150;14.004;2022-10-03T18:19:04;3.80;;;3.50;;
3259;SDS011;22469;48.150;14.004;2022-10-03T18:25:14;8.33;;;6.43;;
3259;SDS011;22469;48.150;14.004;2022-10-03T18:31:37;7.17;;;4.93;;
3259;SDS011;22469;48.150;14.004;2022-10-03T18:34:22;8.00;;;4.40;;
3259;SDS011;22469;48.150;14.004;2022-10-03T18:37:13;6.33;;;4.43;;
3259;SDS011;22469;48.150;14.004;2022-10-03T18:40:02;10.07;;;6.20;;
3259;SDS011;22469;48.150;14.004;2022-10-03T18:42:55;7.77;;;5.60;;
3259;SDS011;22469;48.150;14.004;2022-10-03T18:45:29;5.23;;;4.80;;
3259;SDS011;22469;48.150;14.004;2022-10-03T18:48:16;4.30;;;4.00;;
3259;SDS011;22469;48.150;14.004;2022-10-03T18:53:43;6.23;;;4.40;;
3259;SDS011;22469;48.150;14.004;2022-10-03T18:56:24;8.97;;;5.80;;
3259;SDS011;22469;48.150;14.004;2022-10-03T19:01:49;8.40;;;7.10;;
3259;SDS011;22469;48.150;14.004;2022-10-03T19:07:20;11.03;;;7.00;;
3259;SDS011;22469;48.150;14.004;2022-10-03T19:19:32;15.60;;;10.10;;
3259;SDS011;22469;48.150;14.004;2022-10-03T19:22:13;11.10;;;9.90;;
3259;SDS011;22469;48.150;14.004;2022-10-03T19:25:12;15.30;;;11.70;;
3259;SDS011;22469;48.150;14.004;2022-10-03T19:27:57;12.50;;;10.40;;
3259;SDS011;22469;48.150;14.004;2022-10-03T19:30:29;9.63;;;8.10;;
3259;SDS011;22469;48.150;14.004;2022-10-03T19:33:05;10.80;;;8.20;;
3259;SDS011;22469;48.150;14.004;2022-10-03T19:35:44;10.20;;;9.27;;
3259;SDS011;22469;48.150;14.004;2022-10-03T19:38:14;8.60;;;7.20;;
3259;SDS011;22469;48.150;14.004;2022-10-03T19:40:55;9.20;;;8.07;;
3259;SDS011;22469;48.150;14.004;2022-10-03T19:51:37;9.63;;;7.57;;
3259;SDS011;22469;48.150;14.004;2022-10-03T19:54:25;11.17;;;7.17;;
3259;SDS011;22469;48.150;14.004;2022-10-03T20:00:18;11.57;;;7.47;;
3259;SDS011;22469;48.150;14.004;2022-10-03T20:02:51;10.77;;;7.50;;
3259;SDS011;22469;48.150;14.004;2022-10-03T20:11:38;14.33;;;7.27;;
3259;SDS011;22469;48.150;14.004;2022-10-03T20:14:19;6.93;;;6.03;;
3259;SDS011;22469;48.150;14.004;2022-10-03T20:17:02;11.13;;;6.90;;
3259;SDS011;22469;48.150;14.004;2022-10-03T20:19:45;9.70;;;6.20;;
3259;SDS011;22469;48.150;14.004;2022-10-03T20:22:34;17.70;;;7.87;;
3259;SDS011;22469;48.150;14.004;2022-10-03T20:25:03;7.77;;;6.97;;
3259;SDS011;22469;48.150;14.004;2022-10-03T20:27:47;8.37;;;7.57;;
3259;SDS011;22469;48.150;14.004;2022-10-03T20:33:23;6.83;;;5.93;;
3259;SDS011;22469;48.150;14.004;2022-10-03T20:36:00;6.23;;;5.63;;
3259;SDS011;22469;48.150;14.004;2022-10-03T20:46:50;6.80;;;5.90;;
3259;SDS011;22469;48.150;14.004;2022-10-03T20:49:57;6.57;;;6.07;;
3259;SDS011;22469;48.150;14.004;2022-10-03T20:52:57;6.97;;;6.27;;
3259;SDS011;22469;48.150;14.004;2022-10-03T20:55:34;11.20;;;7.53;;
3259;SDS011;22469;48.150;14.004;2022-10-03T20:58:12;8.70;;;8.00;;
3259;SDS011;22469;48.150;14.004;2022-10-03T21:00:42;10.43;;;7.30;;
3259;SDS011;22469;48.150;14.004;2022-10-03T21:03:40;14.23;;;9.10;;
3259;SDS011;22469;48.150;14.004;2022-10-03T21:13:11;8.23;;;7.37;;
3259;SDS011;22469;48.150;14.004;2022-10-03T21:15:49;9.87;;;7.00;;
3259;SDS011;22469;48.150;14.004;2022-10-03T21:18:23;11.53;;;8.23;;
3259;SDS011;22469;48.150;14.004;2022-10-03T21:21:13;13.00;;;8.47;;
3259;SDS011;22469;48.150;14.004;2022-10-03T21:24:16;11.17;;;7.97;;
3259;SDS011;22469;48.150;14.004;2022-10-03T21:27:12;9.33;;;7.60;;
3259;SDS011;22469;48.150;14.004;2022-10-03T21:29:58;7.70;;;6.90;;
3259;SDS011;22469;48.150;14.004;2022-10-03T21:33:00;11.60;;;7.07;;
3259;SDS011;22469;48.150;14.004;2022-10-03T21:35:39;9.93;;;6.47;;
3259;SDS011;22469;48.150;14.004;2022-10-03T21:43:52;8.10;;;5.53;;
3259;SDS011;22469;48.150;14.004;2022-10-03T22:04:09;9.23;;;5.80;;
3259;SDS011;22469;48.150;14.004;2022-10-03T22:07:06;6.50;;;5.57;;
3259;SDS011;22469;48.150;14.004;2022-10-03T22:09:48;5.50;;;5.00;;
3259;SDS011;22469;48.150;14.004;2022-10-03T22:12:25;7.30;;;5.60;;
3259;SDS011;22469;48.150;14.004;2022-10-03T22:15:08;10.10;;;5.70;;
3259;SDS011;22469;48.150;14.004;2022-10-03T22:17:50;11.80;;;5.90;;
3259;SDS011;22469;48.150;14.004;2022-10-03T22:20:30;6.03;;;5.43;;
3259;SDS011;22469;48.150;14.004;2022-10-03T22:23:12;5.83;;;5.23;;
3259;SDS011;22469;48.150;14.004;2022-10-03T22:26:05;9.33;;;5.47;;
3259;SDS011;22469;48.150;14.004;2022-10-03T22:29:09;5.90;;;5.37;;
3259;SDS011;22469;48.150;14.004;2022-10-03T22:32:05;7.73;;;5.53;;
3259;SDS011;22469;48.150;14.004;2022-10-03T22:38:01;5.87;;;5.37;;
3259;SDS011;22469;48.150;14.004;2022-10-03T22:40:29;6.80;;;5.03;;
3259;SDS011;22469;48.150;14.004;2022-10-03T22:42:59;6.03;;;5.47;;
3259;SDS011;22469;48.150;14.004;2022-10-03T22:45:30;5.43;;;4.93;;
3259;SDS011;22469;48.150;14.004;2022-10-03T22:48:05;7.03;;;5.40;;
3259;SDS011;22469;48.150;14.004;2022-10-03T22:50:40;6.93;;;5.80;;
3259;SDS011;22469;48.150;14.004;2022-10-03T22:53:09;5.47;;;4.97;;
3259;SDS011;22469;48.150;14.004;2022-10-03T22:55:42;12.40;;;5.50;;
3259;SDS011;22469;48.150;14.004;2022-10-03T22:58:15;5.77;;;5.27;;
3259;SDS011;22469;48.150;14.004;2022-10-03T23:00:43;5.73;;;5.20;;
3259;SDS011;22469;48.150;14.004;2022-10-03T23:03:15;6.60;;;5.67;;
3259;SDS011;22469;48.150;14.004;2022-10-03T23:08:45;5.13;;;4.67;;
3259;SDS011;22469;48.150;14.004;2022-10-03T23:11:39;6.23;;;4.60;;
3259;SDS011;22469;48.150;14.004;2022-10-03T23:22:40;6.07;;;5.20;;
3259;SDS011;22469;48.150;14.004;2022-10-03T23:25:15;5.20;;;4.80;;
3259;SDS011;22469;48.150;14.004;2022-10-03T23:27:57;9.30;;;5.17;;
3259;SDS011;22469;48.150;14.004;2022-10-03T23:31:01;5.93;;;5.43;;
3259;SDS011;22469;48.150;14.004;2022-10-03T23:36:04;5.20;;;4.30;;
3259;SDS011;22469;48.150;14.004;2022-10-03T23:41:29;10.40;;;4.87;;
3259;SDS011;22469;48.150;14.004;2022-10-03T23:47:11;3.80;;;3.50;;
3259;SDS011;22469;48.150;14.004;2022-10-03T23:49:43;5.27;;;4.43;;
3259;SDS011;22469;48.150;14.004;2022-10-03T23:52:14;4.80;;;4.40;;
3259;SDS011;22469;48.150;14.004;2022-10-03T23:54:50;5.43;;;4.13;;
3259;SDS011;22469;48.150;14.004;2022-10-03T23:57:26;7.50;;;4.33;;
